sensor_id;sensor_type;location;lat;lon;timestamp;P1;durP1;ratioP1;P2;durP2;ratioP2
73132;SDS011;61320;52.008;4.530;2023-05-07T00:01:39;27.90;;;27.83;;
73132;SDS011;61320;52.008;4.530;2023-05-07T00:04:05;28.46;;;28.46;;
73132;SDS011;61320;52.008;4.530;2023-05-07T00:06:31;27.90;;;27.90;;
73132;SDS011;61320;52.008;4.530;2023-05-07T00:08:57;26.08;;;26.08;;
73132;SDS011;61320;52.008;4.530;2023-05-07T00:11:23;25.92;;;25.81;;
73132;SDS011;61320;52.008;4.530;2023-05-07T00:13:48;26.31;;;26.31;;
73132;SDS011;61320;52.008;4.530;2023-05-07T00:16:14;26.99;;;26.99;;
73132;SDS011;61320;52.008;4.530;2023-05-07T00:18:39;28.17;;;28.10;;
73132;SDS011;61320;52.008;4.530;2023-05-07T00:21:05;27.92;;;27.92;;
73132;SDS011;61320;52.008;4.530;2023-05-07T00:23:30;28.50;;;28.42;;
73132;SDS011;61320;52.008;4.530;2023-05-07T00:25:56;28.37;;;28.37;;
73132;SDS011;61320;52.008;4.530;2023-05-07T00:28:22;27.55;;;27.50;;
73132;SDS011;61320;52.008;4.530;2023-05-07T00:30:47;26.92;;;26.75;;
73132;SDS011;61320;52.008;4.530;2023-05-07T00:33:12;26.97;;;26.97;;
73132;SDS011;61320;52.008;4.530;2023-05-07T00:35:38;26.25;;;26.25;;
73132;SDS011;61320;52.008;4.530;2023-05-07T00:38:03;26.18;;;26.18;;
73132;SDS011;61320;52.008;4.530;2023-05-07T00:40:29;26.26;;;26.24;;
73132;SDS011;61320;52.008;4.530;2023-05-07T00:42:55;27.83;;;27.78;;
73132;SDS011;61320;52.008;4.530;2023-05-07T00:45:23;27.65;;;27.65;;
73132;SDS011;61320;52.008;4.530;2023-05-07T00:47:53;27.46;;;27.46;;
73132;SDS011;61320;52.008;4.530;2023-05-07T00:50:20;27.42;;;27.42;;
73132;SDS011;61320;52.008;4.530;2023-05-07T00:52:46;27.21;;;27.21;;
73132;SDS011;61320;52.008;4.530;2023-05-07T00:55:11;27.26;;;27.26;;
73132;SDS011;61320;52.008;4.530;2023-05-07T00:57:40;27.22;;;27.17;;
73132;SDS011;61320;52.008;4.530;2023-05-07T01:00:07;28.15;;;28.08;;
73132;SDS011;61320;52.008;4.530;2023-05-07T01:02:35;26.87;;;26.85;;
73132;SDS011;61320;52.008;4.530;2023-05-07T01:05:01;26.95;;;26.94;;
73132;SDS011;61320;52.008;4.530;2023-05-07T01:07:29;27.16;;;27.16;;
73132;SDS011;61320;52.008;4.530;2023-05-07T01:09:55;26.63;;;26.62;;
73132;SDS011;61320;52.008;4.530;2023-05-07T01:12:22;26.56;;;26.54;;
73132;SDS011;61320;52.008;4.530;2023-05-07T01:14:50;26.33;;;26.33;;
73132;SDS011;61320;52.008;4.530;2023-05-07T01:17:16;26.45;;;26.45;;
73132;SDS011;61320;52.008;4.530;2023-05-07T01:19:42;26.79;;;26.79;;
73132;SDS011;61320;52.008;4.530;2023-05-07T01:22:08;26.45;;;26.45;;
73132;SDS011;61320;52.008;4.530;2023-05-07T01:24:36;26.11;;;26.07;;
73132;SDS011;61320;52.008;4.530;2023-05-07T01:27:02;25.84;;;25.84;;
73132;SDS011;61320;52.008;4.530;2023-05-07T01:29:27;26.30;;;26.30;;
73132;SDS011;61320;52.008;4.530;2023-05-07T01:31:54;25.83;;;25.83;;
73132;SDS011;61320;52.008;4.530;2023-05-07T01:34:22;25.31;;;25.31;;
73132;SDS011;61320;52.008;4.530;2023-05-07T01:36:52;26.02;;;26.02;;
73132;SDS011;61320;52.008;4.530;2023-05-07T01:39:22;25.63;;;25.60;;
73132;SDS011;61320;52.008;4.530;2023-05-07T01:41:50;26.03;;;26.03;;
73132;SDS011;61320;52.008;4.530;2023-05-07T01:44:16;25.79;;;25.78;;
73132;SDS011;61320;52.008;4.530;2023-05-07T01:46:43;25.91;;;25.89;;
73132;SDS011;61320;52.008;4.530;2023-05-07T01:49:09;26.18;;;26.18;;
73132;SDS011;61320;52.008;4.530;2023-05-07T01:51:35;26.25;;;26.25;;
73132;SDS011;61320;52.008;4.530;2023-05-07T01:54:01;27.31;;;27.28;;
73132;SDS011;61320;52.008;4.530;2023-05-07T01:56:26;25.92;;;25.90;;
73132;SDS011;61320;52.008;4.530;2023-05-07T01:58:52;25.79;;;25.79;;
73132;SDS011;61320;52.008;4.530;2023-05-07T02:01:17;26.17;;;26.17;;
73132;SDS011;61320;52.008;4.530;2023-05-07T02:03:43;26.56;;;26.56;;
73132;SDS011;61320;52.008;4.530;2023-05-07T02:06:09;25.47;;;25.47;;
73132;SDS011;61320;52.008;4.530;2023-05-07T02:08:34;25.19;;;25.19;;
73132;SDS011;61320;52.008;4.530;2023-05-07T02:11:00;26.12;;;26.12;;
73132;SDS011;61320;52.008;4.530;2023-05-07T02:13:29;25.91;;;25.91;;
73132;SDS011;61320;52.008;4.530;2023-05-07T02:15:57;25.06;;;25.06;;
73132;SDS011;61320;52.008;4.530;2023-05-07T02:18:22;25.37;;;25.37;;
73132;SDS011;61320;52.008;4.530;2023-05-07T02:20:48;24.76;;;24.76;;
73132;SDS011;61320;52.008;4.530;2023-05-07T02:23:13;25.52;;;25.52;;
73132;SDS011;61320;52.008;4.530;2023-05-07T02:25:39;24.70;;;24.70;;
73132;SDS011;61320;52.008;4.530;2023-05-07T02:28:04;23.56;;;23.56;;
73132;SDS011;61320;52.008;4.530;2023-05-07T02:30:31;23.84;;;23.84;;
73132;SDS011;61320;52.008;4.530;2023-05-07T02:32:57;24.33;;;24.33;;
73132;SDS011;61320;52.008;4.530;2023-05-07T02:35:23;23.93;;;23.93;;
73132;SDS011;61320;52.008;4.530;2023-05-07T02:37:49;24.16;;;24.16;;
73132;SDS011;61320;52.008;4.530;2023-05-07T02:40:15;23.79;;;23.79;;
73132;SDS011;61320;52.008;4.530;2023-05-07T02:42:40;24.23;;;24.23;;
73132;SDS011;61320;52.008;4.530;2023-05-07T02:45:06;24.85;;;24.85;;
73132;SDS011;61320;52.008;4.530;2023-05-07T02:47:32;23.45;;;23.45;;
73132;SDS011;61320;52.008;4.530;2023-05-07T02:49:57;23.61;;;23.61;;
73132;SDS011;61320;52.008;4.530;2023-05-07T02:52:23;24.41;;;24.41;;
73132;SDS011;61320;52.008;4.530;2023-05-07T02:54:48;23.53;;;23.53;;
73132;SDS011;61320;52.008;4.530;2023-05-07T02:57:14;23.75;;;23.75;;
73132;SDS011;61320;52.008;4.530;2023-05-07T02:59:39;23.74;;;23.74;;
73132;SDS011;61320;52.008;4.530;2023-05-07T03:02:05;23.26;;;23.26;;
73132;SDS011;61320;52.008;4.530;2023-05-07T03:04:30;23.95;;;23.95;;
73132;SDS011;61320;52.008;4.530;2023-05-07T03:06:56;23.95;;;23.95;;
73132;SDS011;61320;52.008;4.530;2023-05-07T03:09:21;24.05;;;24.05;;
73132;SDS011;61320;52.008;4.530;2023-05-07T03:11:47;23.22;;;23.22;;
73132;SDS011;61320;52.008;4.530;2023-05-07T03:14:12;23.04;;;23.04;;
73132;SDS011;61320;52.008;4.530;2023-05-07T03:16:38;22.57;;;22.57;;
73132;SDS011;61320;52.008;4.530;2023-05-07T03:19:04;22.60;;;22.60;;
73132;SDS011;61320;52.008;4.530;2023-05-07T03:21:30;22.43;;;22.43;;
73132;SDS011;61320;52.008;4.530;2023-05-07T03:23:55;21.89;;;21.89;;
73132;SDS011;61320;52.008;4.530;2023-05-07T03:26:21;22.19;;;22.19;;
73132;SDS011;61320;52.008;4.530;2023-05-07T03:28:47;22.51;;;22.51;;
73132;SDS011;61320;52.008;4.530;2023-05-07T03:31:12;22.86;;;22.86;;
73132;SDS011;61320;52.008;4.530;2023-05-07T03:33:39;22.19;;;22.19;;
73132;SDS011;61320;52.008;4.530;2023-05-07T03:36:18;21.45;;;21.45;;
73132;SDS011;61320;52.008;4.530;2023-05-07T03:38:43;21.05;;;21.05;;
73132;SDS011;61320;52.008;4.530;2023-05-07T03:41:09;20.46;;;20.46;;
73132;SDS011;61320;52.008;4.530;2023-05-07T03:43:34;20.89;;;20.89;;
73132;SDS011;61320;52.008;4.530;2023-05-07T03:46:00;20.73;;;20.73;;
73132;SDS011;61320;52.008;4.530;2023-05-07T03:48:25;20.07;;;20.07;;
73132;SDS011;61320;52.008;4.530;2023-05-07T03:50:51;20.24;;;20.24;;
73132;SDS011;61320;52.008;4.530;2023-05-07T03:53:17;20.80;;;20.80;;
73132;SDS011;61320;52.008;4.530;2023-05-07T03:55:42;20.91;;;20.91;;
73132;SDS011;61320;52.008;4.530;2023-05-07T03:58:08;20.27;;;20.27;;
73132;SDS011;61320;52.008;4.530;2023-05-07T04:00:33;19.45;;;19.45;;
73132;SDS011;61320;52.008;4.530;2023-05-07T04:03:03;20.13;;;20.13;;
73132;SDS011;61320;52.008;4.530;2023-05-07T04:05:29;20.13;;;20.13;;
73132;SDS011;61320;52.008;4.530;2023-05-07T04:07:55;19.05;;;19.05;;
73132;SDS011;61320;52.008;4.530;2023-05-07T04:10:21;19.39;;;19.39;;
73132;SDS011;61320;52.008;4.530;2023-05-07T04:12:46;19.58;;;19.58;;
73132;SDS011;61320;52.008;4.530;2023-05-07T04:15:12;20.02;;;20.02;;
73132;SDS011;61320;52.008;4.530;2023-05-07T04:17:37;18.93;;;18.93;;
73132;SDS011;61320;52.008;4.530;2023-05-07T04:20:03;18.64;;;18.64;;
73132;SDS011;61320;52.008;4.530;2023-05-07T04:22:29;19.07;;;19.07;;
73132;SDS011;61320;52.008;4.530;2023-05-07T04:24:54;18.77;;;18.77;;
73132;SDS011;61320;52.008;4.530;2023-05-07T04:27:19;18.57;;;18.57;;
73132;SDS011;61320;52.008;4.530;2023-05-07T04:29:45;18.61;;;18.61;;
73132;SDS011;61320;52.008;4.530;2023-05-07T04:32:12;17.56;;;17.56;;
73132;SDS011;61320;52.008;4.530;2023-05-07T04:34:38;17.84;;;17.84;;
73132;SDS011;61320;52.008;4.530;2023-05-07T04:37:03;17.23;;;17.23;;
73132;SDS011;61320;52.008;4.530;2023-05-07T04:39:29;17.07;;;17.07;;
73132;SDS011;61320;52.008;4.530;2023-05-07T04:41:54;16.54;;;16.54;;
73132;SDS011;61320;52.008;4.530;2023-05-07T04:44:20;17.43;;;17.43;;
73132;SDS011;61320;52.008;4.530;2023-05-07T04:46:46;16.03;;;16.03;;
73132;SDS011;61320;52.008;4.530;2023-05-07T04:49:11;16.56;;;16.56;;
73132;SDS011;61320;52.008;4.530;2023-05-07T04:51:37;16.35;;;16.35;;
73132;SDS011;61320;52.008;4.530;2023-05-07T04:54:03;16.20;;;16.20;;
73132;SDS011;61320;52.008;4.530;2023-05-07T04:56:29;16.33;;;16.33;;
73132;SDS011;61320;52.008;4.530;2023-05-07T04:58:55;16.83;;;16.83;;
73132;SDS011;61320;52.008;4.530;2023-05-07T05:01:20;16.66;;;16.66;;
73132;SDS011;61320;52.008;4.530;2023-05-07T05:03:46;16.31;;;16.31;;
73132;SDS011;61320;52.008;4.530;2023-05-07T05:06:11;16.61;;;16.61;;
73132;SDS011;61320;52.008;4.530;2023-05-07T05:08:37;15.93;;;15.93;;
73132;SDS011;61320;52.008;4.530;2023-05-07T05:11:02;15.86;;;15.86;;
73132;SDS011;61320;52.008;4.530;2023-05-07T05:13:29;16.62;;;16.62;;
73132;SDS011;61320;52.008;4.530;2023-05-07T05:15:55;16.75;;;16.75;;
73132;SDS011;61320;52.008;4.530;2023-05-07T05:18:21;16.88;;;16.88;;
73132;SDS011;61320;52.008;4.530;2023-05-07T05:20:46;16.70;;;16.70;;
73132;SDS011;61320;52.008;4.530;2023-05-07T05:23:11;16.60;;;16.60;;
73132;SDS011;61320;52.008;4.530;2023-05-07T05:25:37;17.34;;;17.34;;
73132;SDS011;61320;52.008;4.530;2023-05-07T05:28:04;17.00;;;17.00;;
73132;SDS011;61320;52.008;4.530;2023-05-07T05:30:29;16.89;;;16.89;;
73132;SDS011;61320;52.008;4.530;2023-05-07T05:32:55;17.15;;;17.15;;
73132;SDS011;61320;52.008;4.530;2023-05-07T05:35:20;17.32;;;17.31;;
73132;SDS011;61320;52.008;4.530;2023-05-07T05:37:46;17.03;;;17.03;;
73132;SDS011;61320;52.008;4.530;2023-05-07T05:40:12;16.81;;;16.81;;
73132;SDS011;61320;52.008;4.530;2023-05-07T05:42:38;17.34;;;17.34;;
73132;SDS011;61320;52.008;4.530;2023-05-07T05:45:03;17.01;;;17.01;;
73132;SDS011;61320;52.008;4.530;2023-05-07T05:47:29;17.85;;;17.85;;
73132;SDS011;61320;52.008;4.530;2023-05-07T05:49:55;17.26;;;17.26;;
73132;SDS011;61320;52.008;4.530;2023-05-07T05:52:20;17.49;;;17.49;;
73132;SDS011;61320;52.008;4.530;2023-05-07T05:54:48;17.52;;;17.52;;
73132;SDS011;61320;52.008;4.530;2023-05-07T05:57:14;17.79;;;17.79;;
73132;SDS011;61320;52.008;4.530;2023-05-07T05:59:40;17.67;;;17.67;;
73132;SDS011;61320;52.008;4.530;2023-05-07T06:02:06;18.72;;;18.72;;
73132;SDS011;61320;52.008;4.530;2023-05-07T06:04:32;18.07;;;18.07;;
73132;SDS011;61320;52.008;4.530;2023-05-07T06:06:57;18.92;;;18.92;;
73132;SDS011;61320;52.008;4.530;2023-05-07T06:09:23;19.65;;;19.65;;
73132;SDS011;61320;52.008;4.530;2023-05-07T06:11:48;19.13;;;19.13;;
73132;SDS011;61320;52.008;4.530;2023-05-07T06:14:14;19.06;;;19.06;;
73132;SDS011;61320;52.008;4.530;2023-05-07T06:16:39;19.66;;;19.66;;
73132;SDS011;61320;52.008;4.530;2023-05-07T06:19:05;20.43;;;20.43;;
73132;SDS011;61320;52.008;4.530;2023-05-07T06:21:30;19.99;;;19.99;;
73132;SDS011;61320;52.008;4.530;2023-05-07T06:23:56;20.38;;;20.38;;
73132;SDS011;61320;52.008;4.530;2023-05-07T06:26:21;20.63;;;20.63;;
73132;SDS011;61320;52.008;4.530;2023-05-07T06:28:47;21.09;;;21.09;;
73132;SDS011;61320;52.008;4.530;2023-05-07T06:31:13;20.87;;;20.87;;
73132;SDS011;61320;52.008;4.530;2023-05-07T06:33:40;21.20;;;21.20;;
73132;SDS011;61320;52.008;4.530;2023-05-07T06:36:06;21.72;;;21.72;;
73132;SDS011;61320;52.008;4.530;2023-05-07T06:38:31;22.06;;;22.06;;
73132;SDS011;61320;52.008;4.530;2023-05-07T06:40:57;22.65;;;22.65;;
73132;SDS011;61320;52.008;4.530;2023-05-07T06:43:22;22.02;;;22.02;;
73132;SDS011;61320;52.008;4.530;2023-05-07T06:45:48;21.96;;;21.96;;
73132;SDS011;61320;52.008;4.530;2023-05-07T06:48:13;21.90;;;21.90;;
73132;SDS011;61320;52.008;4.530;2023-05-07T06:50:39;21.76;;;21.76;;
73132;SDS011;61320;52.008;4.530;2023-05-07T06:53:04;22.80;;;22.80;;
73132;SDS011;61320;52.008;4.530;2023-05-07T06:55:30;22.92;;;22.92;;
73132;SDS011;61320;52.008;4.530;2023-05-07T06:57:55;22.91;;;22.91;;
73132;SDS011;61320;52.008;4.530;2023-05-07T07:00:23;22.38;;;22.38;;
73132;SDS011;61320;52.008;4.530;2023-05-07T07:02:48;23.53;;;23.53;;
73132;SDS011;61320;52.008;4.530;2023-05-07T07:05:14;22.84;;;22.84;;
73132;SDS011;61320;52.008;4.530;2023-05-07T07:07:39;22.62;;;22.62;;
73132;SDS011;61320;52.008;4.530;2023-05-07T07:10:05;22.50;;;22.50;;
73132;SDS011;61320;52.008;4.530;2023-05-07T07:12:31;22.81;;;22.81;;
73132;SDS011;61320;52.008;4.530;2023-05-07T07:14:56;22.54;;;22.54;;
73132;SDS011;61320;52.008;4.530;2023-05-07T07:17:21;23.15;;;23.15;;
73132;SDS011;61320;52.008;4.530;2023-05-07T07:19:47;23.21;;;23.21;;
73132;SDS011;61320;52.008;4.530;2023-05-07T07:22:12;23.58;;;23.58;;
73132;SDS011;61320;52.008;4.530;2023-05-07T07:24:38;23.34;;;23.34;;
73132;SDS011;61320;52.008;4.530;2023-05-07T07:27:03;21.74;;;21.74;;
73132;SDS011;61320;52.008;4.530;2023-05-07T07:29:28;21.77;;;21.77;;
73132;SDS011;61320;52.008;4.530;2023-05-07T07:31:54;21.30;;;21.30;;
73132;SDS011;61320;52.008;4.530;2023-05-07T07:34:19;21.11;;;21.11;;
73132;SDS011;61320;52.008;4.530;2023-05-07T07:36:45;20.30;;;20.30;;
73132;SDS011;61320;52.008;4.530;2023-05-07T07:39:10;20.60;;;20.60;;
73132;SDS011;61320;52.008;4.530;2023-05-07T07:41:36;20.04;;;20.04;;
73132;SDS011;61320;52.008;4.530;2023-05-07T07:44:02;20.15;;;20.15;;
73132;SDS011;61320;52.008;4.530;2023-05-07T07:46:28;19.62;;;19.62;;
73132;SDS011;61320;52.008;4.530;2023-05-07T07:48:54;18.59;;;18.59;;
73132;SDS011;61320;52.008;4.530;2023-05-07T07:51:20;18.39;;;18.39;;
73132;SDS011;61320;52.008;4.530;2023-05-07T07:53:45;18.99;;;18.99;;
73132;SDS011;61320;52.008;4.530;2023-05-07T07:56:11;19.53;;;19.53;;
73132;SDS011;61320;52.008;4.530;2023-05-07T07:58:37;19.51;;;19.51;;
73132;SDS011;61320;52.008;4.530;2023-05-07T08:01:03;19.29;;;19.29;;
73132;SDS011;61320;52.008;4.530;2023-05-07T08:03:28;19.33;;;19.33;;
73132;SDS011;61320;52.008;4.530;2023-05-07T08:05:56;18.72;;;18.72;;
73132;SDS011;61320;52.008;4.530;2023-05-07T08:08:22;18.27;;;18.27;;
73132;SDS011;61320;52.008;4.530;2023-05-07T08:10:47;18.87;;;18.87;;
73132;SDS011;61320;52.008;4.530;2023-05-07T08:13:15;18.44;;;18.44;;
73132;SDS011;61320;52.008;4.530;2023-05-07T08:15:40;17.98;;;17.98;;
73132;SDS011;61320;52.008;4.530;2023-05-07T08:18:06;17.72;;;17.72;;
73132;SDS011;61320;52.008;4.530;2023-05-07T08:20:31;17.80;;;17.80;;
73132;SDS011;61320;52.008;4.530;2023-05-07T08:22:57;16.52;;;16.52;;
73132;SDS011;61320;52.008;4.530;2023-05-07T08:25:22;16.50;;;16.50;;
73132;SDS011;61320;52.008;4.530;2023-05-07T08:27:48;16.92;;;16.92;;
73132;SDS011;61320;52.008;4.530;2023-05-07T08:30:13;16.99;;;16.99;;
73132;SDS011;61320;52.008;4.530;2023-05-07T08:32:39;17.53;;;17.53;;
73132;SDS011;61320;52.008;4.530;2023-05-07T08:35:05;17.54;;;17.54;;
73132;SDS011;61320;52.008;4.530;2023-05-07T08:37:30;17.36;;;17.36;;
73132;SDS011;61320;52.008;4.530;2023-05-07T08:39:56;17.86;;;17.86;;
73132;SDS011;61320;52.008;4.530;2023-05-07T08:42:23;16.92;;;16.92;;
73132;SDS011;61320;52.008;4.530;2023-05-07T08:44:50;17.80;;;17.80;;
73132;SDS011;61320;52.008;4.530;2023-05-07T08:47:29;18.78;;;18.78;;
73132;SDS011;61320;52.008;4.530;2023-05-07T08:50:09;19.44;;;19.44;;
73132;SDS011;61320;52.008;4.530;2023-05-07T08:52:35;19.38;;;19.38;;
73132;SDS011;61320;52.008;4.530;2023-05-07T08:55:02;20.77;;;20.77;;
73132;SDS011;61320;52.008;4.530;2023-05-07T08:57:28;22.14;;;22.14;;
73132;SDS011;61320;52.008;4.530;2023-05-07T08:59:54;21.37;;;21.37;;
73132;SDS011;61320;52.008;4.530;2023-05-07T09:02:20;20.67;;;20.67;;
73132;SDS011;61320;52.008;4.530;2023-05-07T09:04:46;20.39;;;20.39;;
73132;SDS011;61320;52.008;4.530;2023-05-07T09:07:11;20.48;;;20.48;;
73132;SDS011;61320;52.008;4.530;2023-05-07T09:09:37;19.78;;;19.78;;
73132;SDS011;61320;52.008;4.530;2023-05-07T09:12:02;20.49;;;20.49;;
73132;SDS011;61320;52.008;4.530;2023-05-07T09:14:29;21.80;;;21.80;;
73132;SDS011;61320;52.008;4.530;2023-05-07T09:16:55;21.97;;;21.97;;
73132;SDS011;61320;52.008;4.530;2023-05-07T09:19:25;21.15;;;21.15;;
73132;SDS011;61320;52.008;4.530;2023-05-07T09:22:01;20.57;;;20.57;;
73132;SDS011;61320;52.008;4.530;2023-05-07T09:24:29;21.37;;;21.37;;
73132;SDS011;61320;52.008;4.530;2023-05-07T09:26:59;22.20;;;22.20;;
73132;SDS011;61320;52.008;4.530;2023-05-07T09:29:26;20.91;;;20.91;;
73132;SDS011;61320;52.008;4.530;2023-05-07T09:31:54;20.76;;;20.76;;
73132;SDS011;61320;52.008;4.530;2023-05-07T09:34:20;20.59;;;20.59;;
73132;SDS011;61320;52.008;4.530;2023-05-07T09:36:45;19.37;;;19.37;;
73132;SDS011;61320;52.008;4.530;2023-05-07T09:39:12;18.31;;;18.31;;
73132;SDS011;61320;52.008;4.530;2023-05-07T09:41:44;18.38;;;18.38;;
73132;SDS011;61320;52.008;4.530;2023-05-07T09:44:14;17.79;;;17.79;;
73132;SDS011;61320;52.008;4.530;2023-05-07T09:46:42;17.29;;;17.29;;
73132;SDS011;61320;52.008;4.530;2023-05-07T09:49:20;16.22;;;16.22;;
73132;SDS011;61320;52.008;4.530;2023-05-07T09:51:51;16.01;;;16.01;;
73132;SDS011;61320;52.008;4.530;2023-05-07T09:54:18;16.26;;;16.26;;
73132;SDS011;61320;52.008;4.530;2023-05-07T09:56:44;16.44;;;16.44;;
73132;SDS011;61320;52.008;4.530;2023-05-07T09:59:14;16.67;;;16.67;;
73132;SDS011;61320;52.008;4.530;2023-05-07T10:01:42;15.86;;;15.86;;
73132;SDS011;61320;52.008;4.530;2023-05-07T10:04:09;15.36;;;15.36;;
73132;SDS011;61320;52.008;4.530;2023-05-07T10:06:35;15.34;;;15.34;;
73132;SDS011;61320;52.008;4.530;2023-05-07T10:09:05;16.53;;;16.53;;
73132;SDS011;61320;52.008;4.530;2023-05-07T10:11:31;17.30;;;17.30;;
73132;SDS011;61320;52.008;4.530;2023-05-07T10:13:58;18.61;;;18.61;;
73132;SDS011;61320;52.008;4.530;2023-05-07T10:16:24;17.51;;;17.51;;
73132;SDS011;61320;52.008;4.530;2023-05-07T10:18:50;15.57;;;15.57;;
73132;SDS011;61320;52.008;4.530;2023-05-07T10:21:18;16.00;;;16.00;;
73132;SDS011;61320;52.008;4.530;2023-05-07T10:23:45;15.16;;;15.16;;
73132;SDS011;61320;52.008;4.530;2023-05-07T10:26:15;14.66;;;14.66;;
73132;SDS011;61320;52.008;4.530;2023-05-07T10:28:47;13.89;;;13.89;;
73132;SDS011;61320;52.008;4.530;2023-05-07T10:31:23;12.89;;;12.89;;
73132;SDS011;61320;52.008;4.530;2023-05-07T10:33:58;12.91;;;12.91;;
73132;SDS011;61320;52.008;4.530;2023-05-07T10:36:27;10.97;;;10.97;;
73132;SDS011;61320;52.008;4.530;2023-05-07T10:38:53;10.56;;;10.56;;
73132;SDS011;61320;52.008;4.530;2023-05-07T10:41:20;11.32;;;11.32;;
73132;SDS011;61320;52.008;4.530;2023-05-07T10:43:46;13.07;;;13.07;;
73132;SDS011;61320;52.008;4.530;2023-05-07T10:46:19;13.71;;;13.71;;
73132;SDS011;61320;52.008;4.530;2023-05-07T10:51:28;13.15;;;13.15;;
73132;SDS011;61320;52.008;4.530;2023-05-07T10:56:37;12.33;;;12.33;;
73132;SDS011;61320;52.008;4.530;2023-05-07T11:01:49;11.74;;;11.74;;
73132;SDS011;61320;52.008;4.530;2023-05-07T11:04:18;11.86;;;11.86;;
73132;SDS011;61320;52.008;4.530;2023-05-07T11:15:05;13.92;;;13.92;;
73132;SDS011;61320;52.008;4.530;2023-05-07T11:17:32;13.80;;;13.80;;
73132;SDS011;61320;52.008;4.530;2023-05-07T11:20:00;13.94;;;13.94;;
73132;SDS011;61320;52.008;4.530;2023-05-07T11:24:56;13.27;;;13.27;;
73132;SDS011;61320;52.008;4.530;2023-05-07T11:27:24;12.14;;;12.14;;
73132;SDS011;61320;52.008;4.530;2023-05-07T11:29:51;13.20;;;13.20;;
73132;SDS011;61320;52.008;4.530;2023-05-07T11:32:23;13.75;;;13.75;;
73132;SDS011;61320;52.008;4.530;2023-05-07T11:35:00;13.51;;;13.51;;
73132;SDS011;61320;52.008;4.530;2023-05-07T11:37:26;13.14;;;13.14;;
73132;SDS011;61320;52.008;4.530;2023-05-07T11:40:07;12.98;;;12.98;;
73132;SDS011;61320;52.008;4.530;2023-05-07T11:42:36;13.14;;;13.14;;
73132;SDS011;61320;52.008;4.530;2023-05-07T11:45:02;13.80;;;13.80;;
73132;SDS011;61320;52.008;4.530;2023-05-07T11:47:30;13.36;;;13.36;;
73132;SDS011;61320;52.008;4.530;2023-05-07T11:49:56;12.55;;;12.55;;
73132;SDS011;61320;52.008;4.530;2023-05-07T11:52:22;13.18;;;13.18;;
73132;SDS011;61320;52.008;4.530;2023-05-07T11:54:50;13.23;;;13.23;;
73132;SDS011;61320;52.008;4.530;2023-05-07T11:57:15;14.14;;;14.14;;
73132;SDS011;61320;52.008;4.530;2023-05-07T11:59:41;13.59;;;13.59;;
73132;SDS011;61320;52.008;4.530;2023-05-07T12:02:06;13.93;;;13.93;;
73132;SDS011;61320;52.008;4.530;2023-05-07T12:04:32;13.57;;;13.57;;
73132;SDS011;61320;52.008;4.530;2023-05-07T12:06:58;12.72;;;12.72;;
73132;SDS011;61320;52.008;4.530;2023-05-07T12:09:23;12.50;;;12.50;;
73132;SDS011;61320;52.008;4.530;2023-05-07T12:11:49;12.36;;;12.36;;
73132;SDS011;61320;52.008;4.530;2023-05-07T12:14:17;12.57;;;12.57;;
73132;SDS011;61320;52.008;4.530;2023-05-07T12:16:43;13.53;;;13.53;;
73132;SDS011;61320;52.008;4.530;2023-05-07T12:19:10;13.05;;;13.05;;
73132;SDS011;61320;52.008;4.530;2023-05-07T12:21:37;14.48;;;14.48;;
73132;SDS011;61320;52.008;4.530;2023-05-07T12:24:04;14.58;;;14.58;;
73132;SDS011;61320;52.008;4.530;2023-05-07T12:26:30;13.49;;;13.49;;
73132;SDS011;61320;52.008;4.530;2023-05-07T12:28:56;12.87;;;12.87;;
73132;SDS011;61320;52.008;4.530;2023-05-07T12:31:22;11.84;;;11.84;;
73132;SDS011;61320;52.008;4.530;2023-05-07T12:33:51;10.43;;;10.43;;
73132;SDS011;61320;52.008;4.530;2023-05-07T12:36:17;10.24;;;10.24;;
73132;SDS011;61320;52.008;4.530;2023-05-07T12:38:42;9.38;;;9.38;;
73132;SDS011;61320;52.008;4.530;2023-05-07T12:41:09;9.44;;;9.44;;
73132;SDS011;61320;52.008;4.530;2023-05-07T12:43:35;8.78;;;8.78;;
73132;SDS011;61320;52.008;4.530;2023-05-07T12:46:03;8.44;;;8.44;;
73132;SDS011;61320;52.008;4.530;2023-05-07T12:48:32;9.09;;;9.09;;
73132;SDS011;61320;52.008;4.530;2023-05-07T12:51:01;13.90;;;13.90;;
73132;SDS011;61320;52.008;4.530;2023-05-07T12:53:27;14.82;;;14.82;;
73132;SDS011;61320;52.008;4.530;2023-05-07T12:55:55;14.53;;;14.53;;
73132;SDS011;61320;52.008;4.530;2023-05-07T12:58:25;15.10;;;15.10;;
73132;SDS011;61320;52.008;4.530;2023-05-07T13:01:09;14.72;;;14.72;;
73132;SDS011;61320;52.008;4.530;2023-05-07T13:03:36;15.31;;;15.31;;
73132;SDS011;61320;52.008;4.530;2023-05-07T13:06:04;16.04;;;16.04;;
73132;SDS011;61320;52.008;4.530;2023-05-07T13:08:32;16.01;;;16.01;;
73132;SDS011;61320;52.008;4.530;2023-05-07T13:11:00;16.72;;;16.71;;
73132;SDS011;61320;52.008;4.530;2023-05-07T13:13:33;18.03;;;18.03;;
73132;SDS011;61320;52.008;4.530;2023-05-07T13:16:00;18.96;;;18.96;;
73132;SDS011;61320;52.008;4.530;2023-05-07T13:18:27;18.73;;;18.73;;
73132;SDS011;61320;52.008;4.530;2023-05-07T13:20:54;19.85;;;19.85;;
73132;SDS011;61320;52.008;4.530;2023-05-07T13:23:19;19.96;;;19.96;;
73132;SDS011;61320;52.008;4.530;2023-05-07T13:25:45;20.76;;;20.76;;
73132;SDS011;61320;52.008;4.530;2023-05-07T13:28:11;21.63;;;21.63;;
73132;SDS011;61320;52.008;4.530;2023-05-07T13:30:37;21.71;;;21.71;;
73132;SDS011;61320;52.008;4.530;2023-05-07T13:33:02;20.98;;;20.98;;
73132;SDS011;61320;52.008;4.530;2023-05-07T13:35:28;21.15;;;21.15;;
73132;SDS011;61320;52.008;4.530;2023-05-07T13:37:53;22.83;;;22.83;;
73132;SDS011;61320;52.008;4.530;2023-05-07T13:40:20;23.38;;;23.38;;
73132;SDS011;61320;52.008;4.530;2023-05-07T13:42:47;23.80;;;23.80;;
73132;SDS011;61320;52.008;4.530;2023-05-07T13:45:12;24.21;;;24.21;;
73132;SDS011;61320;52.008;4.530;2023-05-07T13:47:40;23.91;;;23.91;;
73132;SDS011;61320;52.008;4.530;2023-05-07T13:50:06;24.43;;;24.43;;
73132;SDS011;61320;52.008;4.530;2023-05-07T13:52:33;24.71;;;24.71;;
73132;SDS011;61320;52.008;4.530;2023-05-07T13:54:58;24.23;;;24.23;;
73132;SDS011;61320;52.008;4.530;2023-05-07T13:57:24;24.65;;;24.65;;
73132;SDS011;61320;52.008;4.530;2023-05-07T13:59:49;25.34;;;25.34;;
73132;SDS011;61320;52.008;4.530;2023-05-07T14:02:15;25.64;;;25.64;;
73132;SDS011;61320;52.008;4.530;2023-05-07T14:04:40;25.39;;;25.39;;
73132;SDS011;61320;52.008;4.530;2023-05-07T14:07:06;24.07;;;24.07;;
73132;SDS011;61320;52.008;4.530;2023-05-07T14:09:31;24.20;;;24.20;;
73132;SDS011;61320;52.008;4.530;2023-05-07T14:11:58;23.58;;;23.58;;
73132;SDS011;61320;52.008;4.530;2023-05-07T14:14:24;23.33;;;23.33;;
73132;SDS011;61320;52.008;4.530;2023-05-07T14:16:49;23.39;;;23.39;;
73132;SDS011;61320;52.008;4.530;2023-05-07T14:19:15;24.04;;;24.04;;
73132;SDS011;61320;52.008;4.530;2023-05-07T14:21:40;25.46;;;25.46;;
73132;SDS011;61320;52.008;4.530;2023-05-07T14:24:06;25.88;;;25.88;;
73132;SDS011;61320;52.008;4.530;2023-05-07T14:26:33;26.04;;;26.04;;
73132;SDS011;61320;52.008;4.530;2023-05-07T14:29:00;25.93;;;25.93;;
73132;SDS011;61320;52.008;4.530;2023-05-07T14:31:25;26.10;;;26.10;;
73132;SDS011;61320;52.008;4.530;2023-05-07T14:33:51;25.80;;;25.80;;
73132;SDS011;61320;52.008;4.530;2023-05-07T14:36:17;25.95;;;25.95;;